Time;durP1;ratioP1;P1;durP2;ratioP2;P2;SDS_P1;SDS_P2;PMS_P1;PMS_P2;Temp;Humidity;BMP_temperature;BMP_pressure;BME280_temperature;BME280_humidity;BME280_pressure;Samples;Min_cycle;Max_cycle;Signal;HPM_P1;HPM_P2
2021/06/07 00:02:11;;;;;;;1.98;1.50;;;;;;;;;;5043171;28;20036;-76
2021/06/07 00:04:37;;;;;;;3.20;1.40;;;;;;;;;;5049259;28;20060;-76
2021/06/07 00:07:04;;;;;;;2.92;1.63;;;;;;;;;;5057868;28;20028;-76
2021/06/07 00:09:29;;;;;;;2.42;1.40;;;;;;;;;;5045033;28;20492;-75
2021/06/07 00:11:56;;;;;;;2.13;1.65;;;;;;;;;;5055954;28;20048;-76
2021/06/07 00:14:26;;;;;;;1.80;1.40;;;;;;;;;;5026716;28;20028;-77
2021/06/07 00:16:51;;;;;;;2.65;1.50;;;;;;;;;;5048893;28;20033;-76
2021/06/07 00:19:17;;;;;;;2.10;1.58;;;;;;;;;;5055727;28;20043;-76
2021/06/07 00:21:43;;;;;;;2.00;1.77;;;;;;;;;;5042921;28;20021;-76
2021/06/07 00:24:08;;;;;;;3.33;2.00;;;;;;;;;;5029499;28;20757;-76
2021/06/07 00:26:34;;;;;;;2.67;1.58;;;;;;;;;;5049957;28;20017;-76
2021/06/07 00:28:59;;;;;;;2.10;1.48;;;;;;;;;;5050721;28;20407;-76
2021/06/07 00:31:24;;;;;;;1.80;1.35;;;;;;;;;;5058201;28;20021;-77
2021/06/07 00:33:49;;;;;;;1.60;1.35;;;;;;;;;;5054070;28;20454;-75
2021/06/07 00:36:20;;;;;;;1.90;1.48;;;;;;;;;;5051390;28;20020;-76
2021/06/07 00:38:45;;;;;;;2.55;1.60;;;;;;;;;;5050127;28;20523;-77
2021/06/07 00:41:12;;;;;;;2.13;1.55;;;;;;;;;;5058596;28;20067;-76
2021/06/07 00:43:37;;;;;;;2.50;1.70;;;;;;;;;;5052442;28;20037;-76
2021/06/07 00:46:03;;;;;;;1.85;1.48;;;;;;;;;;5050906;28;20087;-76
2021/06/07 00:48:28;;;;;;;1.90;1.38;;;;;;;;;;5049456;28;20031;-76
2021/06/07 00:50:55;;;;;;;1.85;1.30;;;;;;;;;;5051090;28;20100;-76
2021/06/07 00:53:20;;;;;;;1.90;1.40;;;;;;;;;;5047677;28;20074;-77
2021/06/07 00:55:48;;;;;;;2.40;1.70;;;;;;;;;;5052398;28;20017;-77
2021/06/07 00:58:14;;;;;;;2.55;1.63;;;;;;;;;;5053371;28;20016;-76
2021/06/07 01:00:40;;;;;;;3.05;1.48;;;;;;;;;;5052677;28;20028;-76
2021/06/07 01:03:06;;;;;;;1.92;1.30;;;;;;;;;;5052626;28;20456;-76
2021/06/07 01:05:32;;;;;;;1.90;1.40;;;;;;;;;;5048252;28;20448;-76
2021/06/07 01:07:57;;;;;;;1.85;1.38;;;;;;;;;;5062550;28;20025;-75
2021/06/07 01:10:23;;;;;;;2.58;1.67;;;;;;;;;;5031107;28;20132;-76
2021/06/07 01:12:48;;;;;;;2.00;1.55;;;;;;;;;;5048251;28;20108;-76
2021/06/07 01:15:14;;;;;;;1.98;1.52;;;;;;;;;;5054957;28;20025;-75
2021/06/07 01:17:39;;;;;;;2.25;1.40;;;;;;;;;;5048171;28;20040;-76
2021/06/07 01:20:06;;;;;;;2.05;1.50;;;;;;;;;;5065677;28;20027;-76
2021/06/07 01:22:32;;;;;;;3.47;1.70;;;;;;;;;;5054147;28;20036;-77
2021/06/07 01:24:57;;;;;;;1.80;1.55;;;;;;;;;;5048970;28;20040;-77
2021/06/07 01:27:23;;;;;;;3.03;1.70;;;;;;;;;;5058394;28;20043;-77
2021/06/07 01:29:48;;;;;;;2.47;1.80;;;;;;;;;;5056456;28;20158;-76
2021/06/07 01:32:13;;;;;;;3.88;2.40;;;;;;;;;;5048665;28;20021;-75
2021/06/07 01:34:39;;;;;;;3.03;2.00;;;;;;;;;;5052624;28;20053;-76
2021/06/07 01:37:04;;;;;;;2.50;1.92;;;;;;;;;;5046770;28;20154;-76
2021/06/07 01:39:29;;;;;;;2.50;2.13;;;;;;;;;;5052932;28;20017;-76
2021/06/07 01:41:55;;;;;;;2.90;2.20;;;;;;;;;;5048349;28;20279;-76
2021/06/07 01:44:20;;;;;;;3.30;2.35;;;;;;;;;;5041503;28;20329;-76
2021/06/07 01:46:45;;;;;;;3.10;2.30;;;;;;;;;;5047224;28;20059;-75
2021/06/07 01:49:11;;;;;;;4.13;2.60;;;;;;;;;;5052786;28;20025;-77
2021/06/07 01:51:36;;;;;;;4.30;2.60;;;;;;;;;;5042743;28;20091;-77
2021/06/07 01:54:01;;;;;;;3.22;2.33;;;;;;;;;;5046853;28;20025;-76
2021/06/07 01:56:27;;;;;;;4.22;2.70;;;;;;;;;;5063452;28;20119;-75
2021/06/07 01:58:52;;;;;;;4.75;2.70;;;;;;;;;;5056610;28;20020;-76
2021/06/07 02:01:19;;;;;;;5.38;3.28;;;;;;;;;;5048242;28;20043;-77
2021/06/07 02:03:44;;;;;;;3.40;2.55;;;;;;;;;;5050062;28;20040;-75
2021/06/07 02:06:11;;;;;;;4.57;2.22;;;;;;;;;;5050923;28;20019;-76
2021/06/07 02:08:37;;;;;;;4.07;2.10;;;;;;;;;;5050892;28;20021;-76
2021/06/07 02:11:04;;;;;;;4.18;2.50;;;;;;;;;;5063820;28;20029;-75
2021/06/07 02:13:30;;;;;;;3.25;2.10;;;;;;;;;;5048183;28;20033;-76
2021/06/07 02:15:56;;;;;;;3.20;2.35;;;;;;;;;;5054460;28;20013;-75
2021/06/07 02:18:21;;;;;;;3.95;2.50;;;;;;;;;;5062007;28;20051;-75
2021/06/07 02:20:47;;;;;;;4.15;2.17;;;;;;;;;;5043233;28;20436;-75
2021/06/07 02:23:12;;;;;;;4.22;2.38;;;;;;;;;;5048670;28;20368;-76
2021/06/07 02:25:37;;;;;;;3.38;2.20;;;;;;;;;;5047841;28;20044;-76
2021/06/07 02:28:02;;;;;;;7.18;2.15;;;;;;;;;;5060250;28;20590;-75
2021/06/07 02:30:28;;;;;;;3.58;2.50;;;;;;;;;;5056976;28;20336;-75
2021/06/07 02:32:55;;;;;;;4.07;2.40;;;;;;;;;;5055116;28;20021;-75
2021/06/07 02:35:21;;;;;;;3.05;2.20;;;;;;;;;;5047872;28;20024;-76
2021/06/07 02:37:47;;;;;;;4.22;2.80;;;;;;;;;;5058377;28;20035;-76
2021/06/07 02:40:14;;;;;;;3.20;2.72;;;;;;;;;;5050264;28;20115;-75
2021/06/07 02:42:40;;;;;;;3.58;2.45;;;;;;;;;;5055343;28;20033;-76
2021/06/07 02:45:07;;;;;;;3.60;2.65;;;;;;;;;;5046956;28;20106;-77
2021/06/07 02:47:32;;;;;;;3.85;2.28;;;;;;;;;;5030431;28;20052;-74
2021/06/07 02:49:57;;;;;;;4.17;2.47;;;;;;;;;;5047563;28;20059;-76
2021/06/07 02:52:22;;;;;;;3.65;2.60;;;;;;;;;;5048692;28;20279;-76
2021/06/07 02:54:48;;;;;;;3.63;2.45;;;;;;;;;;5048093;28;20079;-76
2021/06/07 02:57:13;;;;;;;4.00;3.00;;;;;;;;;;5049096;28;20036;-76
2021/06/07 02:59:38;;;;;;;3.03;2.65;;;;;;;;;;5049006;28;20025;-76
2021/06/07 03:02:04;;;;;;;3.80;2.70;;;;;;;;;;5047431;28;20033;-75
2021/06/07 03:04:29;;;;;;;2.42;2.10;;;;;;;;;;5045991;28;20029;-76
2021/06/07 03:06:54;;;;;;;4.28;2.60;;;;;;;;;;5042330;28;20025;-75
2021/06/07 03:09:19;;;;;;;3.25;2.25;;;;;;;;;;5036767;28;20029;-77
2021/06/07 03:11:45;;;;;;;4.82;3.30;;;;;;;;;;5047331;28;20021;-77
2021/06/07 03:14:10;;;;;;;3.75;2.92;;;;;;;;;;5052647;28;20381;-78
2021/06/07 03:16:36;;;;;;;3.58;2.53;;;;;;;;;;5052628;28;20028;-76
2021/06/07 03:19:01;;;;;;;3.90;2.97;;;;;;;;;;5063527;28;20024;-77
2021/06/07 03:21:26;;;;;;;3.63;2.40;;;;;;;;;;5052432;28;20272;-78
2021/06/07 03:23:51;;;;;;;3.10;2.35;;;;;;;;;;5054953;28;20077;-76
2021/06/07 03:26:16;;;;;;;3.40;2.58;;;;;;;;;;5050287;28;20025;-77
2021/06/07 03:28:42;;;;;;;3.67;2.80;;;;;;;;;;5049046;28;20031;-76
2021/06/07 03:31:08;;;;;;;3.83;3.00;;;;;;;;;;5054096;28;20025;-77
2021/06/07 03:33:34;;;;;;;5.45;3.20;;;;;;;;;;5044985;28;20314;-77
2021/06/07 03:35:59;;;;;;;4.82;2.85;;;;;;;;;;5032772;28;20368;-77
2021/06/07 03:38:25;;;;;;;3.35;2.75;;;;;;;;;;5049641;28;20029;-77
2021/06/07 03:40:52;;;;;;;4.40;3.00;;;;;;;;;;5054975;28;20020;-76
2021/06/07 03:43:20;;;;;;;8.32;3.08;;;;;;;;;;5062142;28;20028;-76
2021/06/07 03:45:45;;;;;;;2.72;2.28;;;;;;;;;;5046829;28;20027;-76
2021/06/07 03:48:10;;;;;;;2.97;2.43;;;;;;;;;;5051580;28;20028;-76
2021/06/07 03:50:36;;;;;;;4.32;2.50;;;;;;;;;;5051136;28;20328;-77
2021/06/07 03:53:01;;;;;;;4.15;2.30;;;;;;;;;;5033335;28;20016;-76
2021/06/07 03:55:27;;;;;;;2.90;2.25;;;;;;;;;;5047074;28;20029;-77
2021/06/07 03:57:53;;;;;;;5.20;2.63;;;;;;;;;;5045393;28;20096;-77
2021/06/07 04:00:20;;;;;;;4.07;2.20;;;;;;;;;;5046120;28;20025;-76
2021/06/07 04:02:45;;;;;;;3.75;2.50;;;;;;;;;;5045731;28;20963;-75
2021/06/07 04:05:11;;;;;;;6.55;3.00;;;;;;;;;;5043103;28;20036;-75
2021/06/07 04:07:36;;;;;;;4.32;2.47;;;;;;;;;;5049767;28;20021;-75
2021/06/07 04:10:09;;;;;;;2.72;2.25;;;;;;;;;;5052001;28;20472;-75
2021/06/07 04:12:35;;;;;;;4.25;2.45;;;;;;;;;;5040962;28;20076;-74
2021/06/07 04:15:00;;;;;;;4.10;2.63;;;;;;;;;;5048875;28;20724;-76
2021/06/07 04:17:27;;;;;;;6.38;2.53;;;;;;;;;;5024776;28;20017;-76
2021/06/07 04:19:52;;;;;;;2.63;2.15;;;;;;;;;;5049485;28;20032;-76
2021/06/07 04:22:17;;;;;;;5.23;2.57;;;;;;;;;;5050412;28;20104;-75
2021/06/07 04:24:45;;;;;;;4.10;2.47;;;;;;;;;;5031974;28;20772;-76
2021/06/07 04:27:12;;;;;;;3.30;2.35;;;;;;;;;;5046108;28;20033;-76
2021/06/07 04:29:38;;;;;;;3.17;2.28;;;;;;;;;;5056914;28;20048;-75
2021/06/07 04:32:03;;;;;;;3.50;2.47;;;;;;;;;;5049338;28;20637;-75
2021/06/07 04:34:28;;;;;;;3.40;2.40;;;;;;;;;;5035472;28;20049;-76
2021/06/07 04:36:53;;;;;;;3.85;2.45;;;;;;;;;;5032481;28;20094;-75
2021/06/07 04:39:19;;;;;;;3.10;2.20;;;;;;;;;;5052577;28;20029;-75
2021/06/07 04:41:44;;;;;;;3.65;2.35;;;;;;;;;;5054387;28;20495;-76
2021/06/07 04:44:09;;;;;;;3.83;2.13;;;;;;;;;;5050462;28;20160;-77
2021/06/07 04:46:34;;;;;;;3.47;2.37;;;;;;;;;;5048450;28;20156;-77
2021/06/07 04:49:00;;;;;;;3.78;2.22;;;;;;;;;;5052060;28;20279;-77
2021/06/07 04:51:25;;;;;;;2.78;1.98;;;;;;;;;;5055138;28;20030;-77
2021/06/07 04:53:50;;;;;;;3.55;2.08;;;;;;;;;;5050959;28;20523;-76
2021/06/07 04:56:15;;;;;;;2.53;1.80;;;;;;;;;;5033882;28;20159;-77
2021/06/07 04:58:41;;;;;;;2.40;1.80;;;;;;;;;;5054786;28;20053;-77
2021/06/07 05:01:08;;;;;;;3.38;1.60;;;;;;;;;;5045880;28;20031;-77
2021/06/07 05:03:33;;;;;;;2.17;1.77;;;;;;;;;;5049004;28;20092;-75
2021/06/07 05:05:59;;;;;;;3.78;1.75;;;;;;;;;;5048560;28;20582;-76
2021/06/07 05:08:25;;;;;;;3.08;1.92;;;;;;;;;;5051035;28;20549;-76
2021/06/07 05:10:50;;;;;;;2.55;1.90;;;;;;;;;;5056810;28;20147;-76
2021/06/07 05:13:16;;;;;;;5.38;2.15;;;;;;;;;;5043634;28;20070;-75
2021/06/07 05:15:42;;;;;;;2.78;1.90;;;;;;;;;;5047947;28;20021;-76
2021/06/07 05:18:07;;;;;;;3.47;2.05;;;;;;;;;;5044367;28;20033;-76
2021/06/07 05:20:32;;;;;;;2.70;2.05;;;;;;;;;;5042839;28;20017;-77
2021/06/07 05:22:58;;;;;;;2.97;2.10;;;;;;;;;;5052794;28;20068;-76
2021/06/07 05:25:24;;;;;;;3.03;1.75;;;;;;;;;;5051248;28;20035;-77
2021/06/07 05:27:51;;;;;;;3.10;2.08;;;;;;;;;;5049287;28;20036;-77
2021/06/07 05:30:16;;;;;;;4.68;1.90;;;;;;;;;;5048560;28;20017;-76
2021/06/07 05:32:42;;;;;;;2.22;1.70;;;;;;;;;;5045295;28;20025;-75
2021/06/07 05:35:08;;;;;;;3.20;1.88;;;;;;;;;;5048517;28;20178;-76
2021/06/07 05:37:34;;;;;;;2.55;1.70;;;;;;;;;;5062770;28;20111;-79
2021/06/07 05:39:59;;;;;;;2.17;1.48;;;;;;;;;;5061489;28;20451;-77
2021/06/07 05:42:24;;;;;;;2.08;1.48;;;;;;;;;;5057281;28;20021;-77
2021/06/07 05:44:49;;;;;;;2.25;1.58;;;;;;;;;;5049955;28;20025;-76
2021/06/07 05:47:15;;;;;;;2.30;1.52;;;;;;;;;;5050760;28;20472;-77
2021/06/07 05:49:40;;;;;;;3.45;1.80;;;;;;;;;;5053791;28;20147;-78
2021/06/07 05:52:06;;;;;;;1.40;1.27;;;;;;;;;;5052543;28;20491;-77
2021/06/07 05:54:32;;;;;;;2.53;1.10;;;;;;;;;;5057116;28;20017;-78
2021/06/07 05:56:57;;;;;;;1.88;1.02;;;;;;;;;;5051382;28;20541;-77
2021/06/07 05:59:22;;;;;;;2.05;1.42;;;;;;;;;;5063460;28;20020;-76
2021/06/07 06:01:48;;;;;;;1.57;0.73;;;;;;;;;;5055060;28;20104;-75
2021/06/07 06:04:13;;;;;;;0.90;0.80;;;;;;;;;;5041484;28;20303;-80
2021/06/07 06:06:38;;;;;;;1.03;0.77;;;;;;;;;;5048609;28;20032;-77
2021/06/07 06:09:03;;;;;;;1.42;0.73;;;;;;;;;;5049322;28;20271;-77
2021/06/07 06:11:28;;;;;;;1.33;0.70;;;;;;;;;;5047474;28;20029;-77
2021/06/07 06:13:54;;;;;;;1.00;0.80;;;;;;;;;;5051037;28;20103;-77
2021/06/07 06:16:20;;;;;;;2.00;0.90;;;;;;;;;;5055723;28;20275;-77
2021/06/07 06:18:46;;;;;;;2.05;0.73;;;;;;;;;;5049052;28;20043;-78
2021/06/07 06:21:11;;;;;;;1.70;1.13;;;;;;;;;;5050699;28;20152;-77
2021/06/07 06:23:38;;;;;;;1.75;1.30;;;;;;;;;;5060055;28;20083;-79
2021/06/07 06:26:04;;;;;;;1.63;1.20;;;;;;;;;;5069070;28;20563;-78
2021/06/07 06:28:29;;;;;;;2.10;1.00;;;;;;;;;;5068542;28;20059;-77
2021/06/07 06:30:54;;;;;;;1.73;1.20;;;;;;;;;;5062269;28;20075;-78
2021/06/07 06:33:19;;;;;;;2.17;1.10;;;;;;;;;;5068833;28;20059;-77
2021/06/07 06:35:44;;;;;;;1.63;1.10;;;;;;;;;;5067220;28;20265;-77
2021/06/07 06:38:10;;;;;;;1.25;0.93;;;;;;;;;;5051706;28;20029;-78
2021/06/07 06:40:36;;;;;;;1.92;1.38;;;;;;;;;;5068849;28;20490;-78
2021/06/07 06:43:04;;;;;;;1.00;0.60;;;;;;;;;;5068941;28;20032;-78
2021/06/07 06:45:29;;;;;;;2.33;1.00;;;;;;;;;;5067858;28;20391;-77
2021/06/07 06:47:58;;;;;;;1.38;0.80;;;;;;;;;;5048127;28;20021;-77
2021/06/07 06:50:25;;;;;;;0.85;0.50;;;;;;;;;;5045244;28;20089;-77
2021/06/07 06:52:50;;;;;;;1.02;0.50;;;;;;;;;;5055771;28;20171;-78
2021/06/07 06:55:16;;;;;;;0.75;0.55;;;;;;;;;;5058111;28;20107;-77
2021/06/07 06:57:41;;;;;;;0.95;0.60;;;;;;;;;;5049474;28;20060;-77
2021/06/07 07:00:07;;;;;;;1.42;0.70;;;;;;;;;;5065661;28;20137;-77
2021/06/07 07:02:32;;;;;;;0.70;0.70;;;;;;;;;;5059312;28;20024;-78
2021/06/07 07:04:58;;;;;;;1.77;0.50;;;;;;;;;;5050351;28;20132;-76
2021/06/07 07:07:23;;;;;;;0.55;0.45;;;;;;;;;;5054701;28;20027;-77
2021/06/07 07:09:48;;;;;;;1.30;0.70;;;;;;;;;;5068524;28;20039;-78
2021/06/07 07:12:13;;;;;;;1.83;0.90;;;;;;;;;;5068736;28;20106;-77
2021/06/07 07:14:39;;;;;;;2.22;0.90;;;;;;;;;;5068729;28;20759;-78
2021/06/07 07:17:04;;;;;;;1.20;0.90;;;;;;;;;;5062167;28;20023;-77
2021/06/07 07:19:29;;;;;;;1.65;1.00;;;;;;;;;;5056348;28;20033;-77
2021/06/07 07:21:55;;;;;;;1.35;0.98;;;;;;;;;;5052555;28;20016;-77
2021/06/07 07:24:20;;;;;;;2.20;1.07;;;;;;;;;;5064364;28;21006;-78
2021/06/07 07:26:45;;;;;;;2.93;1.50;;;;;;;;;;5049550;28;20256;-77
2021/06/07 07:29:10;;;;;;;4.18;1.40;;;;;;;;;;5058993;28;21210;-78
2021/06/07 07:31:35;;;;;;;3.08;1.33;;;;;;;;;;5063269;28;20027;-77
2021/06/07 07:34:01;;;;;;;2.13;1.30;;;;;;;;;;5068326;28;20072;-77
2021/06/07 07:36:26;;;;;;;2.30;1.42;;;;;;;;;;5054974;28;20088;-77
2021/06/07 07:38:51;;;;;;;2.97;1.50;;;;;;;;;;5049054;28;20116;-77
2021/06/07 07:41:16;;;;;;;4.03;1.55;;;;;;;;;;5061469;28;20024;-76
2021/06/07 07:43:41;;;;;;;4.80;1.70;;;;;;;;;;5049187;28;20033;-77
2021/06/07 07:46:07;;;;;;;4.07;1.80;;;;;;;;;;5061364;28;20836;-77
2021/06/07 07:48:32;;;;;;;3.60;1.70;;;;;;;;;;5049651;28;20033;-77
2021/06/07 07:50:57;;;;;;;5.22;2.08;;;;;;;;;;5052232;28;20066;-77
2021/06/07 07:53:24;;;;;;;4.32;1.80;;;;;;;;;;5051251;28;20116;-76
2021/06/07 07:55:51;;;;;;;5.22;1.67;;;;;;;;;;5055656;28;20028;-78
2021/06/07 07:58:16;;;;;;;3.33;1.70;;;;;;;;;;5053571;28;20017;-78
2021/06/07 08:00:41;;;;;;;1.70;1.20;;;;;;;;;;5071176;28;20380;-79
2021/06/07 08:03:07;;;;;;;1.60;1.10;;;;;;;;;;5036660;28;20043;-78
2021/06/07 08:05:32;;;;;;;2.67;1.17;;;;;;;;;;5071985;28;20021;-77
2021/06/07 08:07:58;;;;;;;2.33;1.02;;;;;;;;;;5072083;28;20057;-78
2021/06/07 08:10:23;;;;;;;1.33;1.05;;;;;;;;;;5065491;28;20032;-78
2021/06/07 08:12:49;;;;;;;2.65;1.30;;;;;;;;;;5064809;28;20415;-79
2021/06/07 08:15:14;;;;;;;1.55;1.00;;;;;;;;;;5071780;28;20074;-77
2021/06/07 08:17:40;;;;;;;1.75;1.10;;;;;;;;;;5070775;28;20452;-78
2021/06/07 08:20:10;;;;;;;1.92;1.05;;;;;;;;;;5052314;28;20548;-77
2021/06/07 08:22:35;;;;;;;3.30;1.15;;;;;;;;;;5065760;28;20036;-78
2021/06/07 08:25:01;;;;;;;2.20;1.00;;;;;;;;;;5069770;28;20498;-77
2021/06/07 08:27:26;;;;;;;4.05;1.13;;;;;;;;;;5071949;28;20312;-77
2021/06/07 08:29:51;;;;;;;1.13;0.73;;;;;;;;;;5058375;28;20016;-77
2021/06/07 08:32:17;;;;;;;1.95;1.00;;;;;;;;;;5051895;28;20021;-77
2021/06/07 08:34:42;;;;;;;3.10;0.90;;;;;;;;;;5058469;28;20135;-77
2021/06/07 08:37:07;;;;;;;3.60;1.20;;;;;;;;;;5052269;28;20084;-77
2021/06/07 08:39:32;;;;;;;3.80;1.43;;;;;;;;;;5071217;28;20278;-77
2021/06/07 08:42:00;;;;;;;4.45;1.00;;;;;;;;;;5067715;28;20263;-77
2021/06/07 08:44:25;;;;;;;2.67;0.93;;;;;;;;;;5049157;28;20068;-77
2021/06/07 08:46:51;;;;;;;2.63;1.10;;;;;;;;;;5056360;28;20051;-76
2021/06/07 08:49:16;;;;;;;1.92;1.30;;;;;;;;;;5064502;28;20085;-76
2021/06/07 08:51:41;;;;;;;2.45;0.98;;;;;;;;;;5064285;28;20040;-77
2021/06/07 08:54:06;;;;;;;2.47;0.90;;;;;;;;;;5055174;28;20104;-77
2021/06/07 08:56:32;;;;;;;2.88;1.20;;;;;;;;;;5051708;28;20028;-77
2021/06/07 08:58:57;;;;;;;1.73;1.17;;;;;;;;;;5052043;28;20446;-78
2021/06/07 09:01:22;;;;;;;1.20;0.83;;;;;;;;;;5060344;28;20516;-77
2021/06/07 09:03:47;;;;;;;3.10;1.10;;;;;;;;;;5060343;28;20284;-76
2021/06/07 09:06:16;;;;;;;1.83;1.10;;;;;;;;;;5041663;28;20046;-77
2021/06/07 09:08:41;;;;;;;3.83;0.80;;;;;;;;;;5069396;28;20258;-77
2021/06/07 09:11:11;;;;;;;3.13;1.30;;;;;;;;;;5051307;28;20523;-76
2021/06/07 09:13:37;;;;;;;1.33;0.90;;;;;;;;;;5059387;28;20017;-77
2021/06/07 09:16:02;;;;;;;2.38;1.13;;;;;;;;;;5047734;28;20040;-78
2021/06/07 09:18:31;;;;;;;3.58;1.45;;;;;;;;;;5051549;28;20059;-77
2021/06/07 09:21:14;;;;;;;1.25;1.10;;;;;;;;;;5057483;28;20044;-77
2021/06/07 09:23:39;;;;;;;3.13;0.93;;;;;;;;;;5050892;28;20028;-79
2021/06/07 09:26:07;;;;;;;2.88;1.48;;;;;;;;;;5053804;28;20017;-76
2021/06/07 09:28:37;;;;;;;5.68;1.65;;;;;;;;;;5066754;28;20418;-77
2021/06/07 09:31:07;;;;;;;4.45;1.40;;;;;;;;;;5036773;28;20032;-77
2021/06/07 09:33:38;;;;;;;2.60;1.15;;;;;;;;;;5051243;28;20048;-77
2021/06/07 09:36:17;;;;;;;1.73;1.10;;;;;;;;;;5049730;28;20036;-77
2021/06/07 09:38:56;;;;;;;1.60;1.10;;;;;;;;;;5053204;28;20032;-77
2021/06/07 09:41:22;;;;;;;1.45;1.10;;;;;;;;;;5070256;28;20054;-78
2021/06/07 09:43:47;;;;;;;1.38;1.10;;;;;;;;;;5064351;28;20032;-77
2021/06/07 09:46:12;;;;;;;4.03;1.40;;;;;;;;;;5053684;28;20025;-77
2021/06/07 09:48:38;;;;;;;1.83;1.15;;;;;;;;;;5061627;28;20027;-77
2021/06/07 09:51:03;;;;;;;3.27;1.47;;;;;;;;;;5065519;28;20033;-78
2021/06/07 09:53:37;;;;;;;2.47;1.33;;;;;;;;;;5053845;28;20286;-77
2021/06/07 09:56:03;;;;;;;2.67;1.38;;;;;;;;;;5051561;28;20027;-79
2021/06/07 09:58:30;;;;;;;2.10;1.48;;;;;;;;;;5040322;28;20480;-76
2021/06/07 10:00:55;;;;;;;1.85;1.40;;;;;;;;;;5047257;28;20024;-77
2021/06/07 10:03:20;;;;;;;2.60;1.30;;;;;;;;;;5052161;28;20396;-75
2021/06/07 10:05:46;;;;;;;1.67;1.30;;;;;;;;;;5045180;28;20112;-77
2021/06/07 10:08:11;;;;;;;1.55;1.40;;;;;;;;;;5056282;28;20033;-79
2021/06/07 10:10:36;;;;;;;1.42;1.27;;;;;;;;;;5053642;28;20393;-76
2021/06/07 10:13:12;;;;;;;1.80;1.35;;;;;;;;;;5048661;28;20040;-76
2021/06/07 10:15:38;;;;;;;3.17;1.20;;;;;;;;;;5052166;28;20009;-75
2021/06/07 10:18:05;;;;;;;2.50;1.50;;;;;;;;;;5049022;28;20694;-76
2021/06/07 10:22:59;;;;;;;5.35;1.80;;;;;;;;;;5048265;28;20115;-77
2021/06/07 10:25:24;;;;;;;2.45;1.63;;;;;;;;;;5044950;28;20055;-78
2021/06/07 10:27:50;;;;;;;2.20;1.40;;;;;;;;;;5043120;28;20612;-76
2021/06/07 10:30:16;;;;;;;3.28;1.88;;;;;;;;;;5044060;28;20455;-76
2021/06/07 10:32:42;;;;;;;4.45;1.95;;;;;;;;;;5049916;28;20059;-76
2021/06/07 10:35:08;;;;;;;2.85;1.83;;;;;;;;;;5038615;28;20088;-78
2021/06/07 10:37:34;;;;;;;2.97;1.60;;;;;;;;;;5052281;28;20027;-76
2021/06/07 10:40:28;;;;;;;5.57;1.75;;;;;;;;;;5058506;28;20107;-76
2021/06/07 10:43:07;;;;;;;4.25;1.77;;;;;;;;;;4981045;28;20046;-78
2021/06/07 10:45:37;;;;;;;4.43;2.05;;;;;;;;;;4987202;28;20381;-77
2021/06/07 10:48:02;;;;;;;2.03;1.67;;;;;;;;;;4975128;28;20500;-77
2021/06/07 10:50:29;;;;;;;2.63;1.80;;;;;;;;;;4968590;28;20030;-78
2021/06/07 10:53:01;;;;;;;3.05;2.03;;;;;;;;;;4969716;28;20133;-78
2021/06/07 10:55:31;;;;;;;2.53;1.90;;;;;;;;;;4976794;28;20185;-77
2021/06/07 10:57:56;;;;;;;;;;;;;;;;;;4973243;28;20113;-76
2021/06/07 11:00:29;;;;;;;2.97;1.80;;;;;;;;;;4974172;28;20001;-78
2021/06/07 11:02:59;;;;;;;4.05;1.92;;;;;;;;;;4987202;28;20057;-77
2021/06/07 11:05:26;;;;;;;3.28;1.90;;;;;;;;;;4970328;28;20023;-78
2021/06/07 11:08:00;;;;;;;3.35;2.20;;;;;;;;;;4973848;28;20019;-76
2021/06/07 11:10:35;;;;;;;3.63;1.77;;;;;;;;;;4967948;28;20019;-78
2021/06/07 11:13:04;;;;;;;3.08;2.00;;;;;;;;;;4970162;28;20031;-77
2021/06/07 11:15:31;;;;;;;3.55;2.28;;;;;;;;;;4984413;28;20034;-77
2021/06/07 11:18:15;;;;;;;3.10;1.90;;;;;;;;;;4970313;28;20023;-77
2021/06/07 11:20:40;;;;;;;3.08;1.90;;;;;;;;;;5057283;28;20017;-78
2021/06/07 11:23:07;;;;;;;2.75;1.88;;;;;;;;;;5058669;28;20028;-78
2021/06/07 11:25:44;;;;;;;2.45;1.98;;;;;;;;;;5052904;28;20134;-76
2021/06/07 11:28:28;;;;;;;2.80;1.95;;;;;;;;;;5057501;28;20061;-77
2021/06/07 11:30:53;;;;;;;4.22;2.10;;;;;;;;;;5052155;28;20172;-77
2021/06/07 11:33:19;;;;;;;3.03;1.70;;;;;;;;;;5061339;28;20062;-77
2021/06/07 11:35:44;;;;;;;3.00;1.73;;;;;;;;;;5065773;28;20498;-78
2021/06/07 11:38:28;;;;;;;2.55;1.83;;;;;;;;;;5030596;28;20075;-78
2021/06/07 11:40:54;;;;;;;2.72;1.98;;;;;;;;;;5042926;28;20013;-77
2021/06/07 11:43:39;;;;;;;2.88;2.20;;;;;;;;;;5040708;28;20037;-78
2021/06/07 11:46:04;;;;;;;4.00;2.50;;;;;;;;;;5047549;28;20182;-78
2021/06/07 11:48:48;;;;;;;3.00;2.10;;;;;;;;;;5044029;28;20581;-76
2021/06/07 11:51:29;;;;;;;3.10;2.10;;;;;;;;;;5047546;28;20495;-76
2021/06/07 11:53:54;;;;;;;3.70;2.30;;;;;;;;;;5050524;28;20043;-76
2021/06/07 11:56:21;;;;;;;2.80;2.30;;;;;;;;;;5033401;28;20014;-76
2021/06/07 11:58:47;;;;;;;4.63;2.55;;;;;;;;;;5044443;28;20036;-76
2021/06/07 12:01:12;;;;;;;4.80;2.58;;;;;;;;;;5045812;28;20018;-77
2021/06/07 12:03:42;;;;;;;4.38;3.00;;;;;;;;;;5045274;28;20087;-77
2021/06/07 12:06:08;;;;;;;5.18;3.90;;;;;;;;;;5048788;28;20021;-77
2021/06/07 12:08:33;;;;;;;6.72;4.57;;;;;;;;;;5041156;28;20018;-77
2021/06/07 12:10:59;;;;;;;5.30;3.30;;;;;;;;;;5045650;28;20025;-76
2021/06/07 12:13:27;;;;;;;4.13;2.58;;;;;;;;;;5033459;28;20020;-78
2021/06/07 12:15:56;;;;;;;3.38;2.88;;;;;;;;;;5040622;28;20348;-77
2021/06/07 12:18:32;;;;;;;3.58;2.80;;;;;;;;;;5040716;28;20473;-77
2021/06/07 12:21:21;;;;;;;4.50;2.55;;;;;;;;;;5040429;28;20017;-77
2021/06/07 12:23:57;;;;;;;4.25;2.60;;;;;;;;;;4984661;28;20414;-77
2021/06/07 12:29:19;;;;;;;3.20;2.30;;;;;;;;;;4985194;28;20046;-77
2021/06/07 12:32:03;;;;;;;5.50;3.37;;;;;;;;;;4986006;28;20019;-76
2021/06/07 12:34:28;;;;;;;7.55;2.55;;;;;;;;;;4982059;28;20848;-76
2021/06/07 12:36:53;;;;;;;4.80;3.60;;;;;;;;;;4986124;28;20132;-75
2021/06/07 12:39:18;;;;;;;4.03;3.13;;;;;;;;;;4985770;28;20022;-76
2021/06/07 12:41:47;;;;;;;3.93;3.07;;;;;;;;;;4980050;28;20325;-77
2021/06/07 12:44:12;;;;;;;4.78;2.95;;;;;;;;;;4982881;28;20312;-77
2021/06/07 12:46:47;;;;;;;3.88;2.88;;;;;;;;;;4988779;28;20026;-76
2021/06/07 12:49:29;;;;;;;5.28;3.63;;;;;;;;;;4971308;28;20026;-77
2021/06/07 12:52:01;;;;;;;3.15;2.80;;;;;;;;;;4987850;28;20190;-77
2021/06/07 12:54:28;;;;;;;3.55;2.65;;;;;;;;;;4988458;28;20058;-78
2021/06/07 12:56:53;;;;;;;3.53;3.10;;;;;;;;;;4989361;28;20486;-78
2021/06/07 12:59:26;;;;;;;4.25;2.60;;;;;;;;;;4985405;28;20023;-79
2021/06/07 13:01:51;;;;;;;4.57;2.53;;;;;;;;;;5048915;28;20110;-79
2021/06/07 13:04:27;;;;;;;4.35;2.65;;;;;;;;;;5052371;28;20069;-80
2021/06/07 13:06:53;;;;;;;2.90;2.28;;;;;;;;;;5029457;28;20095;-79
2021/06/07 13:09:30;;;;;;;3.05;2.50;;;;;;;;;;5051354;28;20098;-79
2021/06/07 13:11:56;;;;;;;3.47;3.00;;;;;;;;;;5050649;28;20116;-79
2021/06/07 13:14:23;;;;;;;3.67;2.92;;;;;;;;;;5050353;28;20734;-79
2021/06/07 13:16:48;;;;;;;2.88;2.30;;;;;;;;;;5047080;28;20021;-80
2021/06/07 13:19:14;;;;;;;3.20;2.47;;;;;;;;;;5035293;28;20047;-79
2021/06/07 13:22:10;;;;;;;2.78;2.42;;;;;;;;;;5048060;28;20060;-80
2021/06/07 13:24:38;;;;;;;4.07;3.20;;;;;;;;;;4977598;28;20053;-80
2021/06/07 13:27:03;;;;;;;4.65;3.58;;;;;;;;;;4977452;28;20022;-79
2021/06/07 13:29:33;;;;;;;3.72;2.88;;;;;;;;;;4973638;28;20452;-80
2021/06/07 13:32:10;;;;;;;4.38;3.15;;;;;;;;;;4970417;28;20465;-78
2021/06/07 13:34:46;;;;;;;4.20;3.20;;;;;;;;;;4968679;28;20409;-79
2021/06/07 13:37:16;;;;;;;3.53;2.92;;;;;;;;;;4970177;28;20062;-79
2021/06/07 13:39:42;;;;;;;;;;;;;;;;;;4972894;28;20655;-79
2021/06/07 13:42:07;;;;;;;4.45;3.00;;;;;;;;;;4973490;28;19987;-79
2021/06/07 13:44:58;;;;;;;3.40;2.72;;;;;;;;;;4970124;28;20046;-79
2021/06/07 13:47:27;;;;;;;4.32;3.22;;;;;;;;;;4968575;28;20113;-78
2021/06/07 13:50:03;;;;;;;4.40;3.53;;;;;;;;;;4952966;28;20711;-78
2021/06/07 13:52:37;;;;;;;4.22;3.38;;;;;;;;;;4968726;28;20027;-79
2021/06/07 13:55:10;;;;;;;3.95;3.20;;;;;;;;;;4968922;28;20035;-77
2021/06/07 13:57:52;;;;;;;3.88;2.90;;;;;;;;;;4968708;28;20105;-77
2021/06/07 14:00:18;;;;;;;6.90;3.80;;;;;;;;;;4992736;28;20484;-77
2021/06/07 14:02:43;;;;;;;3.92;3.00;;;;;;;;;;5052444;28;20036;-80
2021/06/07 14:05:08;;;;;;;4.37;3.10;;;;;;;;;;5058098;28;20033;-79
2021/06/07 14:07:33;;;;;;;3.80;2.88;;;;;;;;;;5050911;28;20768;-80
2021/06/07 14:09:58;;;;;;;4.13;2.40;;;;;;;;;;5051077;28;20412;-78
2021/06/07 14:12:26;;;;;;;3.50;3.03;;;;;;;;;;5056768;28;20024;-80
2021/06/07 14:14:51;;;;;;;3.72;2.67;;;;;;;;;;5057974;28;20307;-80
2021/06/07 14:17:16;;;;;;;6.80;3.70;;;;;;;;;;5049339;28;20056;-80
2021/06/07 14:19:41;;;;;;;4.60;3.35;;;;;;;;;;5049404;28;20112;-81
2021/06/07 14:24:38;;;;;;;4.75;3.67;;;;;;;;;;5048657;28;20299;-79
2021/06/07 14:27:04;;;;;;;4.35;3.17;;;;;;;;;;5058878;28;20091;-79
2021/06/07 14:29:29;;;;;;;3.60;3.20;;;;;;;;;;5050368;28;20031;-80
2021/06/07 14:31:55;;;;;;;3.90;2.87;;;;;;;;;;5048953;28;20028;-79
2021/06/07 14:34:20;;;;;;;4.30;3.00;;;;;;;;;;5046508;28;21013;-78
2021/06/07 14:36:46;;;;;;;6.43;3.30;;;;;;;;;;5035583;28;20283;-81
2021/06/07 14:39:11;;;;;;;4.40;2.95;;;;;;;;;;5029762;28;20024;-78
2021/06/07 14:41:36;;;;;;;3.78;2.90;;;;;;;;;;5051496;28;20499;-79
2021/06/07 14:44:02;;;;;;;6.03;3.20;;;;;;;;;;5048534;28;20491;-77
2021/06/07 14:46:27;;;;;;;5.07;3.47;;;;;;;;;;5041736;28;20333;-77
2021/06/07 14:48:53;;;;;;;4.88;3.20;;;;;;;;;;5049604;28;20036;-77
2021/06/07 14:51:19;;;;;;;4.38;3.05;;;;;;;;;;5051780;28;20032;-83